sensor_id;sensor_type;location;lat;lon;timestamp;temperature;humidity
17154;DHT22;8692;52.164;7.558;2024-01-07T00:02:30;1.70;99.90
17154;DHT22;8692;52.164;7.558;2024-01-07T00:04:58;1.70;99.90
17154;DHT22;8692;52.164;7.558;2024-01-07T00:07:26;1.70;99.90
17154;DHT22;8692;52.164;7.558;2024-01-07T00:09:56;1.70;99.90
17154;DHT22;8692;52.164;7.558;2024-01-07T00:12:24;1.70;99.90
17154;DHT22;8692;52.164;7.558;2024-01-07T00:14:52;1.70;99.90
17154;DHT22;8692;52.164;7.558;2024-01-07T00:17:20;1.70;99.90
17154;DHT22;8692;52.164;7.558;2024-01-07T00:19:48;1.70;99.90
17154;DHT22;8692;52.164;7.558;2024-01-07T00:22:16;1.70;99.90
17154;DHT22;8692;52.164;7.558;2024-01-07T00:24:45;1.70;99.90
17154;DHT22;8692;52.164;7.558;2024-01-07T00:27:14;1.60;99.90
17154;DHT22;8692;52.164;7.558;2024-01-07T00:29:42;1.60;99.90
17154;DHT22;8692;52.164;7.558;2024-01-07T00:32:10;1.70;99.90
17154;DHT22;8692;52.164;7.558;2024-01-07T00:34:38;1.70;99.90
17154;DHT22;8692;52.164;7.558;2024-01-07T00:37:06;1.60;99.90
17154;DHT22;8692;52.164;7.558;2024-01-07T00:39:34;1.60;99.90
17154;DHT22;8692;52.164;7.558;2024-01-07T00:42:03;1.60;99.90
17154;DHT22;8692;52.164;7.558;2024-01-07T00:44:32;1.60;99.90
17154;DHT22;8692;52.164;7.558;2024-01-07T00:47:00;1.60;99.90
17154;DHT22;8692;52.164;7.558;2024-01-07T00:49:28;1.60;99.90
17154;DHT22;8692;52.164;7.558;2024-01-07T00:51:57;1.50;99.90
17154;DHT22;8692;52.164;7.558;2024-01-07T00:54:25;1.50;99.90
17154;DHT22;8692;52.164;7.558;2024-01-07T00:56:53;1.60;99.90
17154;DHT22;8692;52.164;7.558;2024-01-07T00:59:21;1.50;99.90
17154;DHT22;8692;52.164;7.558;2024-01-07T01:01:50;1.40;99.90
17154;DHT22;8692;52.164;7.558;2024-01-07T01:04:19;1.40;99.90
17154;DHT22;8692;52.164;7.558;2024-01-07T01:06:47;1.50;99.90
17154;DHT22;8692;52.164;7.558;2024-01-07T01:09:15;1.50;99.90
17154;DHT22;8692;52.164;7.558;2024-01-07T01:11:44;1.40;99.90
17154;DHT22;8692;52.164;7.558;2024-01-07T01:14:12;1.50;99.90
17154;DHT22;8692;52.164;7.558;2024-01-07T01:16:40;1.50;99.90
17154;DHT22;8692;52.164;7.558;2024-01-07T01:19:09;1.50;99.90
17154;DHT22;8692;52.164;7.558;2024-01-07T01:21:37;1.40;99.90
17154;DHT22;8692;52.164;7.558;2024-01-07T01:24:05;1.40;99.90
17154;DHT22;8692;52.164;7.558;2024-01-07T01:26:33;1.40;99.90
17154;DHT22;8692;52.164;7.558;2024-01-07T01:29:01;1.40;99.90
17154;DHT22;8692;52.164;7.558;2024-01-07T01:31:29;1.40;99.90
17154;DHT22;8692;52.164;7.558;2024-01-07T01:33:57;1.40;99.90
17154;DHT22;8692;52.164;7.558;2024-01-07T01:36:27;1.40;99.90
17154;DHT22;8692;52.164;7.558;2024-01-07T01:38:55;1.40;99.90
17154;DHT22;8692;52.164;7.558;2024-01-07T01:41:23;1.40;99.90
17154;DHT22;8692;52.164;7.558;2024-01-07T01:43:51;1.50;99.90
17154;DHT22;8692;52.164;7.558;2024-01-07T01:46:19;1.40;99.90
17154;DHT22;8692;52.164;7.558;2024-01-07T01:48:47;1.40;99.90
17154;DHT22;8692;52.164;7.558;2024-01-07T01:51:16;1.40;99.90
17154;DHT22;8692;52.164;7.558;2024-01-07T01:53:47;1.40;99.90
17154;DHT22;8692;52.164;7.558;2024-01-07T01:56:17;1.40;99.90
17154;DHT22;8692;52.164;7.558;2024-01-07T01:58:47;1.30;99.90
17154;DHT22;8692;52.164;7.558;2024-01-07T02:01:15;1.30;99.90
17154;DHT22;8692;52.164;7.558;2024-01-07T02:03:43;1.30;99.90
17154;DHT22;8692;52.164;7.558;2024-01-07T02:06:11;1.30;99.90
17154;DHT22;8692;52.164;7.558;2024-01-07T02:08:42;1.30;99.90
17154;DHT22;8692;52.164;7.558;2024-01-07T02:11:20;1.30;99.90
17154;DHT22;8692;52.164;7.558;2024-01-07T02:13:48;1.30;99.90
17154;DHT22;8692;52.164;7.558;2024-01-07T02:16:17;1.30;99.90
17154;DHT22;8692;52.164;7.558;2024-01-07T02:18:45;1.30;99.90
17154;DHT22;8692;52.164;7.558;2024-01-07T02:21:14;1.30;99.90
17154;DHT22;8692;52.164;7.558;2024-01-07T02:23:45;1.30;99.90
17154;DHT22;8692;52.164;7.558;2024-01-07T02:26:14;1.30;99.90
17154;DHT22;8692;52.164;7.558;2024-01-07T02:28:42;1.20;99.90
17154;DHT22;8692;52.164;7.558;2024-01-07T02:31:10;1.20;99.90
17154;DHT22;8692;52.164;7.558;2024-01-07T02:33:38;1.20;99.90
17154;DHT22;8692;52.164;7.558;2024-01-07T02:36:07;1.20;99.90
17154;DHT22;8692;52.164;7.558;2024-01-07T02:38:35;1.20;99.90
17154;DHT22;8692;52.164;7.558;2024-01-07T02:41:03;1.20;99.90
17154;DHT22;8692;52.164;7.558;2024-01-07T02:43:33;1.20;99.90
17154;DHT22;8692;52.164;7.558;2024-01-07T02:46:02;1.20;99.90
17154;DHT22;8692;52.164;7.558;2024-01-07T02:48:30;1.10;99.90
17154;DHT22;8692;52.164;7.558;2024-01-07T02:50:59;1.10;99.90
17154;DHT22;8692;52.164;7.558;2024-01-07T02:53:27;1.10;99.90
17154;DHT22;8692;52.164;7.558;2024-01-07T02:55:55;1.10;99.90
17154;DHT22;8692;52.164;7.558;2024-01-07T02:58:23;1.10;99.90
17154;DHT22;8692;52.164;7.558;2024-01-07T03:00:52;1.10;99.90
17154;DHT22;8692;52.164;7.558;2024-01-07T03:03:20;1.10;99.90
17154;DHT22;8692;52.164;7.558;2024-01-07T03:05:48;1.10;99.90
17154;DHT22;8692;52.164;7.558;2024-01-07T03:08:16;1.10;99.90
17154;DHT22;8692;52.164;7.558;2024-01-07T03:10:44;1.10;99.90
17154;DHT22;8692;52.164;7.558;2024-01-07T03:13:12;1.10;99.90
17154;DHT22;8692;52.164;7.558;2024-01-07T03:15:40;1.10;99.90
17154;DHT22;8692;52.164;7.558;2024-01-07T03:18:10;1.10;99.90
17154;DHT22;8692;52.164;7.558;2024-01-07T03:20:38;1.10;99.90
17154;DHT22;8692;52.164;7.558;2024-01-07T03:23:06;1.10;99.90
17154;DHT22;8692;52.164;7.558;2024-01-07T03:25:34;1.10;99.90
17154;DHT22;8692;52.164;7.558;2024-01-07T03:28:04;1.00;99.90
17154;DHT22;8692;52.164;7.558;2024-01-07T03:30:32;1.00;99.90
17154;DHT22;8692;52.164;7.558;2024-01-07T03:33:01;1.10;99.90
17154;DHT22;8692;52.164;7.558;2024-01-07T03:35:30;1.10;99.90
17154;DHT22;8692;52.164;7.558;2024-01-07T03:37:58;1.10;99.90
17154;DHT22;8692;52.164;7.558;2024-01-07T03:40:26;1.10;99.90
17154;DHT22;8692;52.164;7.558;2024-01-07T03:42:54;1.00;99.90
17154;DHT22;8692;52.164;7.558;2024-01-07T03:45:22;1.10;99.90
17154;DHT22;8692;52.164;7.558;2024-01-07T03:47:50;1.00;99.90
17154;DHT22;8692;52.164;7.558;2024-01-07T03:50:18;1.10;99.90
17154;DHT22;8692;52.164;7.558;2024-01-07T03:52:48;1.10;99.90
17154;DHT22;8692;52.164;7.558;2024-01-07T03:55:16;1.00;99.90
17154;DHT22;8692;52.164;7.558;2024-01-07T03:57:44;1.00;99.90
17154;DHT22;8692;52.164;7.558;2024-01-07T04:00:12;1.00;99.90
17154;DHT22;8692;52.164;7.558;2024-01-07T04:02:40;1.00;99.90
17154;DHT22;8692;52.164;7.558;2024-01-07T04:05:09;0.90;99.90
17154;DHT22;8692;52.164;7.558;2024-01-07T04:07:37;0.90;99.90
17154;DHT22;8692;52.164;7.558;2024-01-07T04:10:07;0.90;99.90
17154;DHT22;8692;52.164;7.558;2024-01-07T04:12:36;0.80;99.90
17154;DHT22;8692;52.164;7.558;2024-01-07T04:15:04;0.80;99.90
17154;DHT22;8692;52.164;7.558;2024-01-07T04:17:33;0.80;99.90
17154;DHT22;8692;52.164;7.558;2024-01-07T04:20:01;0.80;99.90
17154;DHT22;8692;52.164;7.558;2024-01-07T04:22:29;0.80;99.90
17154;DHT22;8692;52.164;7.558;2024-01-07T04:24:57;0.80;99.90
17154;DHT22;8692;52.164;7.558;2024-01-07T04:27:26;0.90;99.90
17154;DHT22;8692;52.164;7.558;2024-01-07T04:29:54;0.80;99.90
17154;DHT22;8692;52.164;7.558;2024-01-07T04:32:22;0.80;99.90
17154;DHT22;8692;52.164;7.558;2024-01-07T04:34:50;0.80;99.90
17154;DHT22;8692;52.164;7.558;2024-01-07T04:37:18;0.80;99.90
17154;DHT22;8692;52.164;7.558;2024-01-07T04:39:46;0.80;99.90
17154;DHT22;8692;52.164;7.558;2024-01-07T04:42:15;0.80;99.90
17154;DHT22;8692;52.164;7.558;2024-01-07T04:44:44;0.80;99.90
17154;DHT22;8692;52.164;7.558;2024-01-07T04:47:26;0.80;99.90
17154;DHT22;8692;52.164;7.558;2024-01-07T04:49:54;0.90;99.90
17154;DHT22;8692;52.164;7.558;2024-01-07T04:52:23;0.80;99.90
17154;DHT22;8692;52.164;7.558;2024-01-07T04:54:51;0.80;99.90
17154;DHT22;8692;52.164;7.558;2024-01-07T04:57:20;0.80;99.90
17154;DHT22;8692;52.164;7.558;2024-01-07T04:59:50;0.90;99.90
17154;DHT22;8692;52.164;7.558;2024-01-07T05:02:18;0.90;99.90
17154;DHT22;8692;52.164;7.558;2024-01-07T05:04:47;0.90;99.90
17154;DHT22;8692;52.164;7.558;2024-01-07T05:07:15;0.90;99.90
17154;DHT22;8692;52.164;7.558;2024-01-07T05:09:43;0.90;99.90
17154;DHT22;8692;52.164;7.558;2024-01-07T05:12:11;0.90;99.90
17154;DHT22;8692;52.164;7.558;2024-01-07T05:14:40;0.80;99.90
17154;DHT22;8692;52.164;7.558;2024-01-07T05:17:10;0.80;99.90
17154;DHT22;8692;52.164;7.558;2024-01-07T05:19:40;0.80;99.90
17154;DHT22;8692;52.164;7.558;2024-01-07T05:22:08;0.80;99.90
17154;DHT22;8692;52.164;7.558;2024-01-07T05:24:36;0.80;99.90
17154;DHT22;8692;52.164;7.558;2024-01-07T05:27:05;0.80;99.90
17154;DHT22;8692;52.164;7.558;2024-01-07T05:29:33;0.70;99.90
17154;DHT22;8692;52.164;7.558;2024-01-07T05:32:01;0.70;99.90
17154;DHT22;8692;52.164;7.558;2024-01-07T05:34:31;0.70;99.90
17154;DHT22;8692;52.164;7.558;2024-01-07T05:37:00;0.70;99.90
17154;DHT22;8692;52.164;7.558;2024-01-07T05:39:28;0.60;99.90
17154;DHT22;8692;52.164;7.558;2024-01-07T05:41:56;0.60;99.90
17154;DHT22;8692;52.164;7.558;2024-01-07T05:44:24;0.60;99.90
17154;DHT22;8692;52.164;7.558;2024-01-07T05:46:55;0.60;99.90
17154;DHT22;8692;52.164;7.558;2024-01-07T05:49:23;0.60;99.90
17154;DHT22;8692;52.164;7.558;2024-01-07T05:51:53;0.60;99.90
17154;DHT22;8692;52.164;7.558;2024-01-07T05:54:21;0.60;99.90
17154;DHT22;8692;52.164;7.558;2024-01-07T05:56:54;0.60;99.90
17154;DHT22;8692;52.164;7.558;2024-01-07T05:59:22;0.60;99.90
17154;DHT22;8692;52.164;7.558;2024-01-07T06:01:50;0.70;99.90
17154;DHT22;8692;52.164;7.558;2024-01-07T06:04:18;0.60;99.90
17154;DHT22;8692;52.164;7.558;2024-01-07T06:06:46;0.60;99.90
17154;DHT22;8692;52.164;7.558;2024-01-07T06:09:20;0.60;99.90
17154;DHT22;8692;52.164;7.558;2024-01-07T06:11:48;0.60;99.90
17154;DHT22;8692;52.164;7.558;2024-01-07T06:14:16;0.60;99.90
17154;DHT22;8692;52.164;7.558;2024-01-07T06:16:44;0.60;99.90
17154;DHT22;8692;52.164;7.558;2024-01-07T06:19:12;0.50;99.90
17154;DHT22;8692;52.164;7.558;2024-01-07T06:21:41;0.50;99.90
17154;DHT22;8692;52.164;7.558;2024-01-07T06:24:09;0.40;99.90
17154;DHT22;8692;52.164;7.558;2024-01-07T06:26:39;0.40;99.90
17154;DHT22;8692;52.164;7.558;2024-01-07T06:29:08;0.40;99.90
17154;DHT22;8692;52.164;7.558;2024-01-07T06:31:42;0.40;99.90
17154;DHT22;8692;52.164;7.558;2024-01-07T06:34:10;0.40;99.90
17154;DHT22;8692;52.164;7.558;2024-01-07T06:36:40;0.40;99.90
17154;DHT22;8692;52.164;7.558;2024-01-07T06:39:08;0.40;99.90
17154;DHT22;8692;52.164;7.558;2024-01-07T06:41:39;0.40;99.90
17154;DHT22;8692;52.164;7.558;2024-01-07T06:44:07;0.40;99.90
17154;DHT22;8692;52.164;7.558;2024-01-07T06:46:35;0.40;99.90
17154;DHT22;8692;52.164;7.558;2024-01-07T06:49:03;0.30;99.90
17154;DHT22;8692;52.164;7.558;2024-01-07T06:51:31;0.30;99.90
17154;DHT22;8692;52.164;7.558;2024-01-07T06:53:59;0.40;99.90
17154;DHT22;8692;52.164;7.558;2024-01-07T06:56:27;0.30;99.90
17154;DHT22;8692;52.164;7.558;2024-01-07T06:58:57;0.30;99.90
17154;DHT22;8692;52.164;7.558;2024-01-07T07:01:25;0.30;99.90
17154;DHT22;8692;52.164;7.558;2024-01-07T07:03:53;0.30;99.90
17154;DHT22;8692;52.164;7.558;2024-01-07T07:06:21;0.30;99.90
17154;DHT22;8692;52.164;7.558;2024-01-07T07:08:49;0.30;99.90
17154;DHT22;8692;52.164;7.558;2024-01-07T07:11:17;0.20;99.90
17154;DHT22;8692;52.164;7.558;2024-01-07T07:13:46;0.20;99.90
17154;DHT22;8692;52.164;7.558;2024-01-07T07:16:15;0.20;99.90
17154;DHT22;8692;52.164;7.558;2024-01-07T07:18:44;0.30;99.90
17154;DHT22;8692;52.164;7.558;2024-01-07T07:21:12;0.30;99.90
17154;DHT22;8692;52.164;7.558;2024-01-07T07:23:40;0.30;99.90
17154;DHT22;8692;52.164;7.558;2024-01-07T07:26:08;0.30;99.90
17154;DHT22;8692;52.164;7.558;2024-01-07T07:28:36;0.30;99.90
17154;DHT22;8692;52.164;7.558;2024-01-07T07:31:04;0.30;99.90
17154;DHT22;8692;52.164;7.558;2024-01-07T07:33:34;0.20;99.90
17154;DHT22;8692;52.164;7.558;2024-01-07T07:36:03;0.20;99.90
17154;DHT22;8692;52.164;7.558;2024-01-07T07:38:31;0.10;99.90
17154;DHT22;8692;52.164;7.558;2024-01-07T07:40:59;0.00;99.90
17154;DHT22;8692;52.164;7.558;2024-01-07T07:43:27;0.00;99.90
17154;DHT22;8692;52.164;7.558;2024-01-07T07:45:56;0.00;99.90
17154;DHT22;8692;52.164;7.558;2024-01-07T07:48:24;0.00;99.90
17154;DHT22;8692;52.164;7.558;2024-01-07T07:50:54;0.00;99.90
17154;DHT22;8692;52.164;7.558;2024-01-07T07:53:23;0.00;99.90
17154;DHT22;8692;52.164;7.558;2024-01-07T07:55:51;0.00;99.90
17154;DHT22;8692;52.164;7.558;2024-01-07T07:58:19;-0.10;99.90
17154;DHT22;8692;52.164;7.558;2024-01-07T08:00:47;-0.10;99.90
17154;DHT22;8692;52.164;7.558;2024-01-07T08:03:15;0.00;99.90
17154;DHT22;8692;52.164;7.558;2024-01-07T08:05:43;-0.10;99.90
17154;DHT22;8692;52.164;7.558;2024-01-07T08:08:13;-0.10;99.90
17154;DHT22;8692;52.164;7.558;2024-01-07T08:10:41;-0.10;99.90
17154;DHT22;8692;52.164;7.558;2024-01-07T08:13:09;0.00;99.90
17154;DHT22;8692;52.164;7.558;2024-01-07T08:15:37;0.00;99.90
17154;DHT22;8692;52.164;7.558;2024-01-07T08:18:05;0.00;99.90
17154;DHT22;8692;52.164;7.558;2024-01-07T08:20:33;-0.10;99.90
17154;DHT22;8692;52.164;7.558;2024-01-07T08:23:01;0.00;99.90
17154;DHT22;8692;52.164;7.558;2024-01-07T08:25:31;0.00;99.90
17154;DHT22;8692;52.164;7.558;2024-01-07T08:27:59;0.00;99.90
17154;DHT22;8692;52.164;7.558;2024-01-07T08:30:27;0.00;99.90
17154;DHT22;8692;52.164;7.558;2024-01-07T08:32:55;0.00;99.90
17154;DHT22;8692;52.164;7.558;2024-01-07T08:35:23;0.10;99.90
17154;DHT22;8692;52.164;7.558;2024-01-07T08:37:53;0.10;99.90
17154;DHT22;8692;52.164;7.558;2024-01-07T08:40:21;0.10;99.90
17154;DHT22;8692;52.164;7.558;2024-01-07T08:42:51;0.10;99.90
17154;DHT22;8692;52.164;7.558;2024-01-07T08:45:19;0.10;99.90
17154;DHT22;8692;52.164;7.558;2024-01-07T08:47:47;0.10;99.90
17154;DHT22;8692;52.164;7.558;2024-01-07T08:50:16;0.10;99.90
17154;DHT22;8692;52.164;7.558;2024-01-07T08:52:44;0.00;99.90
17154;DHT22;8692;52.164;7.558;2024-01-07T08:55:13;0.00;99.90
17154;DHT22;8692;52.164;7.558;2024-01-07T08:57:42;0.00;99.90
17154;DHT22;8692;52.164;7.558;2024-01-07T09:00:14;0.00;99.90
17154;DHT22;8692;52.164;7.558;2024-01-07T09:02:43;-0.10;99.90
17154;DHT22;8692;52.164;7.558;2024-01-07T09:05:11;0.00;99.90
17154;DHT22;8692;52.164;7.558;2024-01-07T09:07:40;0.00;99.90
17154;DHT22;8692;52.164;7.558;2024-01-07T09:10:08;0.10;99.90
17154;DHT22;8692;52.164;7.558;2024-01-07T09:12:38;0.10;99.90
17154;DHT22;8692;52.164;7.558;2024-01-07T09:15:07;0.10;99.90
17154;DHT22;8692;52.164;7.558;2024-01-07T09:17:38;0.10;99.90
17154;DHT22;8692;52.164;7.558;2024-01-07T09:20:08;0.10;99.90
17154;DHT22;8692;52.164;7.558;2024-01-07T09:22:36;0.10;99.90
17154;DHT22;8692;52.164;7.558;2024-01-07T09:25:05;0.00;99.90
17154;DHT22;8692;52.164;7.558;2024-01-07T09:27:34;0.00;99.90
17154;DHT22;8692;52.164;7.558;2024-01-07T09:30:02;0.10;99.90
17154;DHT22;8692;52.164;7.558;2024-01-07T09:32:30;0.10;99.90
17154;DHT22;8692;52.164;7.558;2024-01-07T09:35:05;0.10;99.90
17154;DHT22;8692;52.164;7.558;2024-01-07T09:37:34;0.10;99.90
17154;DHT22;8692;52.164;7.558;2024-01-07T09:40:03;0.10;99.90
17154;DHT22;8692;52.164;7.558;2024-01-07T09:42:34;0.10;99.90
17154;DHT22;8692;52.164;7.558;2024-01-07T09:45:03;0.10;99.90
17154;DHT22;8692;52.164;7.558;2024-01-07T09:47:32;0.10;99.90
17154;DHT22;8692;52.164;7.558;2024-01-07T09:50:00;0.10;99.90
17154;DHT22;8692;52.164;7.558;2024-01-07T09:52:30;0.10;99.90
17154;DHT22;8692;52.164;7.558;2024-01-07T09:55:02;0.10;99.90
17154;DHT22;8692;52.164;7.558;2024-01-07T09:57:31;0.00;99.90
17154;DHT22;8692;52.164;7.558;2024-01-07T10:00:01;0.00;99.90
17154;DHT22;8692;52.164;7.558;2024-01-07T10:02:37;-0.10;99.90
17154;DHT22;8692;52.164;7.558;2024-01-07T10:05:08;-0.10;99.90
17154;DHT22;8692;52.164;7.558;2024-01-07T10:07:38;-0.10;99.90
17154;DHT22;8692;52.164;7.558;2024-01-07T10:10:15;-0.10;99.90
17154;DHT22;8692;52.164;7.558;2024-01-07T10:12:45;-0.10;99.90
17154;DHT22;8692;52.164;7.558;2024-01-07T10:15:14;-0.10;99.90
17154;DHT22;8692;52.164;7.558;2024-01-07T10:17:42;-0.10;99.90
17154;DHT22;8692;52.164;7.558;2024-01-07T10:20:11;-0.10;99.90
17154;DHT22;8692;52.164;7.558;2024-01-07T10:22:46;0.00;99.90
17154;DHT22;8692;52.164;7.558;2024-01-07T10:25:15;0.00;99.90
17154;DHT22;8692;52.164;7.558;2024-01-07T10:27:43;0.00;99.90
17154;DHT22;8692;52.164;7.558;2024-01-07T10:30:12;0.00;99.90
17154;DHT22;8692;52.164;7.558;2024-01-07T10:32:42;0.10;99.90
17154;DHT22;8692;52.164;7.558;2024-01-07T10:35:13;0.10;99.90
17154;DHT22;8692;52.164;7.558;2024-01-07T10:37:44;0.00;99.90
17154;DHT22;8692;52.164;7.558;2024-01-07T10:40:12;0.00;99.90
17154;DHT22;8692;52.164;7.558;2024-01-07T10:42:43;0.00;99.90
17154;DHT22;8692;52.164;7.558;2024-01-07T10:45:13;0.10;99.90
17154;DHT22;8692;52.164;7.558;2024-01-07T10:47:48;0.10;99.90
17154;DHT22;8692;52.164;7.558;2024-01-07T10:50:18;0.10;99.90
17154;DHT22;8692;52.164;7.558;2024-01-07T10:52:49;0.20;99.90
17154;DHT22;8692;52.164;7.558;2024-01-07T10:55:19;0.10;99.90
17154;DHT22;8692;52.164;7.558;2024-01-07T10:57:51;0.20;99.90
17154;DHT22;8692;52.164;7.558;2024-01-07T11:00:21;0.20;99.90
17154;DHT22;8692;52.164;7.558;2024-01-07T11:02:55;0.20;99.90
17154;DHT22;8692;52.164;7.558;2024-01-07T11:05:31;0.20;99.90
17154;DHT22;8692;52.164;7.558;2024-01-07T11:08:07;0.20;99.90
17154;DHT22;8692;52.164;7.558;2024-01-07T11:10:43;0.20;99.90
17154;DHT22;8692;52.164;7.558;2024-01-07T11:13:32;0.20;99.90
17154;DHT22;8692;52.164;7.558;2024-01-07T11:16:02;0.10;99.90
17154;DHT22;8692;52.164;7.558;2024-01-07T11:18:31;0.10;99.90
17154;DHT22;8692;52.164;7.558;2024-01-07T11:21:02;0.10;99.90
17154;DHT22;8692;52.164;7.558;2024-01-07T11:23:33;0.10;99.90
17154;DHT22;8692;52.164;7.558;2024-01-07T11:26:04;0.10;99.90
17154;DHT22;8692;52.164;7.558;2024-01-07T11:28:46;0.10;99.90
17154;DHT22;8692;52.164;7.558;2024-01-07T11:31:15;0.20;99.90
17154;DHT22;8692;52.164;7.558;2024-01-07T11:33:45;0.20;99.90
17154;DHT22;8692;52.164;7.558;2024-01-07T11:36:14;0.20;99.90
17154;DHT22;8692;52.164;7.558;2024-01-07T11:38:44;0.20;99.90
17154;DHT22;8692;52.164;7.558;2024-01-07T11:41:18;0.10;99.90
17154;DHT22;8692;52.164;7.558;2024-01-07T11:43:54;0.10;99.90
17154;DHT22;8692;52.164;7.558;2024-01-07T11:46:27;0.20;99.90
17154;DHT22;8692;52.164;7.558;2024-01-07T11:48:58;0.20;99.90
17154;DHT22;8692;52.164;7.558;2024-01-07T11:51:27;0.20;99.90
17154;DHT22;8692;52.164;7.558;2024-01-07T11:53:59;0.20;99.90
17154;DHT22;8692;52.164;7.558;2024-01-07T11:56:28;0.20;99.90
17154;DHT22;8692;52.164;7.558;2024-01-07T11:58:56;0.20;99.90
17154;DHT22;8692;52.164;7.558;2024-01-07T12:01:24;0.30;99.90
17154;DHT22;8692;52.164;7.558;2024-01-07T12:03:54;0.40;99.90
17154;DHT22;8692;52.164;7.558;2024-01-07T12:06:22;0.40;99.90
17154;DHT22;8692;52.164;7.558;2024-01-07T12:08:52;0.40;99.90
17154;DHT22;8692;52.164;7.558;2024-01-07T12:11:21;0.40;99.90
17154;DHT22;8692;52.164;7.558;2024-01-07T12:13:50;0.40;99.90
17154;DHT22;8692;52.164;7.558;2024-01-07T12:16:18;0.50;99.90
17154;DHT22;8692;52.164;7.558;2024-01-07T12:18:47;0.50;99.90
17154;DHT22;8692;52.164;7.558;2024-01-07T12:21:18;0.60;99.90
17154;DHT22;8692;52.164;7.558;2024-01-07T12:23:48;0.60;99.90
17154;DHT22;8692;52.164;7.558;2024-01-07T12:26:17;0.60;99.90
17154;DHT22;8692;52.164;7.558;2024-01-07T12:28:52;0.60;99.90
17154;DHT22;8692;52.164;7.558;2024-01-07T12:31:20;0.60;99.90
17154;DHT22;8692;52.164;7.558;2024-01-07T12:33:48;0.60;99.90
17154;DHT22;8692;52.164;7.558;2024-01-07T12:36:20;0.60;99.90
17154;DHT22;8692;52.164;7.558;2024-01-07T12:38:48;0.60;99.90
17154;DHT22;8692;52.164;7.558;2024-01-07T12:41:18;0.60;99.90
17154;DHT22;8692;52.164;7.558;2024-01-07T12:43:48;0.60;99.90
17154;DHT22;8692;52.164;7.558;2024-01-07T12:46:16;0.60;99.90
17154;DHT22;8692;52.164;7.558;2024-01-07T12:48:45;0.70;99.90
17154;DHT22;8692;52.164;7.558;2024-01-07T12:51:13;0.70;99.90
17154;DHT22;8692;52.164;7.558;2024-01-07T12:53:41;0.70;99.90
17154;DHT22;8692;52.164;7.558;2024-01-07T12:56:10;0.70;99.90
17154;DHT22;8692;52.164;7.558;2024-01-07T12:58:38;0.70;99.90
17154;DHT22;8692;52.164;7.558;2024-01-07T13:01:08;0.70;99.90
17154;DHT22;8692;52.164;7.558;2024-01-07T13:03:37;0.70;99.90
17154;DHT22;8692;52.164;7.558;2024-01-07T13:06:06;0.60;99.90
17154;DHT22;8692;52.164;7.558;2024-01-07T13:08:34;0.60;99.90
17154;DHT22;8692;52.164;7.558;2024-01-07T13:11:03;0.50;99.90
17154;DHT22;8692;52.164;7.558;2024-01-07T13:13:31;0.50;99.90
17154;DHT22;8692;52.164;7.558;2024-01-07T13:15:59;0.50;99.90
17154;DHT22;8692;52.164;7.558;2024-01-07T13:18:30;0.50;99.90
17154;DHT22;8692;52.164;7.558;2024-01-07T13:20:58;0.50;99.90
17154;DHT22;8692;52.164;7.558;2024-01-07T13:23:27;0.50;99.90
17154;DHT22;8692;52.164;7.558;2024-01-07T13:25:55;0.50;99.90
17154;DHT22;8692;52.164;7.558;2024-01-07T13:28:24;0.50;99.90
17154;DHT22;8692;52.164;7.558;2024-01-07T13:30:52;0.50;99.90
17154;DHT22;8692;52.164;7.558;2024-01-07T13:33:20;0.40;99.90
17154;DHT22;8692;52.164;7.558;2024-01-07T13:35:49;0.40;99.90
17154;DHT22;8692;52.164;7.558;2024-01-07T13:38:17;0.40;99.90
17154;DHT22;8692;52.164;7.558;2024-01-07T13:40:45;0.50;99.90
17154;DHT22;8692;52.164;7.558;2024-01-07T13:43:14;0.40;99.90
17154;DHT22;8692;52.164;7.558;2024-01-07T13:45:42;0.50;99.90
17154;DHT22;8692;52.164;7.558;2024-01-07T13:48:10;0.50;99.90
17154;DHT22;8692;52.164;7.558;2024-01-07T13:50:39;0.60;99.90
17154;DHT22;8692;52.164;7.558;2024-01-07T13:53:08;0.60;99.90
17154;DHT22;8692;52.164;7.558;2024-01-07T13:55:36;0.60;99.90
17154;DHT22;8692;52.164;7.558;2024-01-07T13:58:04;0.60;99.90
17154;DHT22;8692;52.164;7.558;2024-01-07T14:00:32;0.70;99.90
17154;DHT22;8692;52.164;7.558;2024-01-07T14:03:00;0.70;99.90
17154;DHT22;8692;52.164;7.558;2024-01-07T14:05:29;0.70;99.90
17154;DHT22;8692;52.164;7.558;2024-01-07T14:07:57;0.70;99.90
17154;DHT22;8692;52.164;7.558;2024-01-07T14:10:26;0.70;99.90
17154;DHT22;8692;52.164;7.558;2024-01-07T14:12:54;0.70;99.90
17154;DHT22;8692;52.164;7.558;2024-01-07T14:15:22;0.80;99.90
17154;DHT22;8692;52.164;7.558;2024-01-07T14:17:50;0.80;99.90
17154;DHT22;8692;52.164;7.558;2024-01-07T14:20:18;0.80;99.90
17154;DHT22;8692;52.164;7.558;2024-01-07T14:22:48;0.80;99.90
17154;DHT22;8692;52.164;7.558;2024-01-07T14:25:16;0.80;99.90
17154;DHT22;8692;52.164;7.558;2024-01-07T14:27:45;0.70;99.90
17154;DHT22;8692;52.164;7.558;2024-01-07T14:30:13;0.70;99.90
17154;DHT22;8692;52.164;7.558;2024-01-07T14:32:42;0.70;99.90
17154;DHT22;8692;52.164;7.558;2024-01-07T14:35:11;0.70;99.90
17154;DHT22;8692;52.164;7.558;2024-01-07T14:37:40;0.70;99.90
17154;DHT22;8692;52.164;7.558;2024-01-07T14:40:08;0.70;99.90
17154;DHT22;8692;52.164;7.558;2024-01-07T14:42:36;0.70;99.90
17154;DHT22;8692;52.164;7.558;2024-01-07T14:45:07;0.70;99.90
17154;DHT22;8692;52.164;7.558;2024-01-07T14:47:35;0.70;99.90
17154;DHT22;8692;52.164;7.558;2024-01-07T14:50:03;0.60;99.90
17154;DHT22;8692;52.164;7.558;2024-01-07T14:52:34;0.60;99.90
17154;DHT22;8692;52.164;7.558;2024-01-07T14:55:02;0.60;99.90
17154;DHT22;8692;52.164;7.558;2024-01-07T14:57:30;0.60;99.90
17154;DHT22;8692;52.164;7.558;2024-01-07T14:59:59;0.60;99.90
17154;DHT22;8692;52.164;7.558;2024-01-07T15:02:28;0.60;99.90
17154;DHT22;8692;52.164;7.558;2024-01-07T15:04:56;0.60;99.90
17154;DHT22;8692;52.164;7.558;2024-01-07T15:07:25;0.60;99.90
17154;DHT22;8692;52.164;7.558;2024-01-07T15:09:53;0.50;99.90
17154;DHT22;8692;52.164;7.558;2024-01-07T15:12:21;0.50;99.90
17154;DHT22;8692;52.164;7.558;2024-01-07T15:14:49;0.50;99.90
17154;DHT22;8692;52.164;7.558;2024-01-07T15:17:18;0.50;99.90
17154;DHT22;8692;52.164;7.558;2024-01-07T15:19:47;0.50;99.90
17154;DHT22;8692;52.164;7.558;2024-01-07T15:22:15;0.50;99.90
17154;DHT22;8692;52.164;7.558;2024-01-07T15:24:43;0.50;99.90
17154;DHT22;8692;52.164;7.558;2024-01-07T15:27:12;0.50;99.90
17154;DHT22;8692;52.164;7.558;2024-01-07T15:29:39;0.50;99.90
17154;DHT22;8692;52.164;7.558;2024-01-07T15:32:07;0.50;99.90
17154;DHT22;8692;52.164;7.558;2024-01-07T15:34:35;0.50;99.90
17154;DHT22;8692;52.164;7.558;2024-01-07T15:37:05;0.50;99.90
17154;DHT22;8692;52.164;7.558;2024-01-07T15:39:35;0.50;99.90
17154;DHT22;8692;52.164;7.558;2024-01-07T15:42:03;0.50;99.90
17154;DHT22;8692;52.164;7.558;2024-01-07T15:44:32;0.50;99.90
17154;DHT22;8692;52.164;7.558;2024-01-07T15:47:00;0.40;99.90
17154;DHT22;8692;52.164;7.558;2024-01-07T15:49:30;0.40;99.90
17154;DHT22;8692;52.164;7.558;2024-01-07T15:51:58;0.40;99.90
17154;DHT22;8692;52.164;7.558;2024-01-07T15:54:28;0.40;99.90
17154;DHT22;8692;52.164;7.558;2024-01-07T15:56:56;0.40;99.90
17154;DHT22;8692;52.164;7.558;2024-01-07T15:59:24;0.40;99.90
17154;DHT22;8692;52.164;7.558;2024-01-07T16:01:52;0.40;99.90
17154;DHT22;8692;52.164;7.558;2024-01-07T16:04:21;0.40;99.90
17154;DHT22;8692;52.164;7.558;2024-01-07T16:06:51;0.30;99.90
17154;DHT22;8692;52.164;7.558;2024-01-07T16:09:19;0.30;99.90
17154;DHT22;8692;52.164;7.558;2024-01-07T16:11:50;0.30;99.90
17154;DHT22;8692;52.164;7.558;2024-01-07T16:14:18;0.30;99.90